Time;durP1;ratioP1;P1;durP2;ratioP2;P2;SDS_P1;SDS_P2;PMS_P1;PMS_P2;Temp;Humidity;BMP_temperature;BMP_pressure;BME280_temperature;BME280_humidity;BME280_pressure;Samples;Min_cycle;Max_cycle;Signal;HPM_P1;HPM_P2
2023/02/27 00:01:54;;;;;;;6.03;1.57;;;;;;;;;;5046413;28;20189;-68
2023/02/27 00:04:20;;;;;;;5.40;1.43;;;;;;;;;;5062247;28;20943;-68
2023/02/27 00:06:45;;;;;;;2.43;1.63;;;;;;;;;;5063571;28;20189;-68
2023/02/27 00:09:10;;;;;;;2.37;1.07;;;;;;;;;;5060277;28;20189;-68
2023/02/27 00:11:37;;;;;;;3.17;1.20;;;;;;;;;;5068040;28;20232;-68
2023/02/27 00:14:03;;;;;;;5.50;1.27;;;;;;;;;;5061856;28;20527;-68
2023/02/27 00:16:28;;;;;;;3.43;1.80;;;;;;;;;;5051198;28;20177;-68
2023/02/27 00:18:55;;;;;;;6.33;1.60;;;;;;;;;;5061798;28;20891;-67
2023/02/27 00:21:22;;;;;;;3.87;1.53;;;;;;;;;;5062670;28;20648;-68
2023/02/27 00:23:47;;;;;;;3.57;1.10;;;;;;;;;;5050408;28;20189;-68
2023/02/27 00:26:12;;;;;;;3.80;1.47;;;;;;;;;;5059917;28;20200;-68
2023/02/27 00:28:38;;;;;;;4.27;1.50;;;;;;;;;;5066750;28;20279;-69
2023/02/27 00:31:03;;;;;;;3.70;1.30;;;;;;;;;;5055055;28;20232;-69
2023/02/27 00:33:29;;;;;;;3.47;1.30;;;;;;;;;;5050769;28;20189;-68
2023/02/27 00:35:57;;;;;;;4.30;1.43;;;;;;;;;;5057270;28;20266;-68
2023/02/27 00:38:22;;;;;;;6.60;1.30;;;;;;;;;;5069668;28;20264;-68
2023/02/27 00:40:47;;;;;;;7.27;1.50;;;;;;;;;;5054716;28;20196;-69
2023/02/27 00:43:13;;;;;;;5.17;1.43;;;;;;;;;;5050139;28;20197;-68
2023/02/27 00:45:38;;;;;;;2.50;1.33;;;;;;;;;;5060071;28;20201;-68
2023/02/27 00:48:04;;;;;;;4.87;1.50;;;;;;;;;;5054181;28;20243;-68
2023/02/27 00:50:29;;;;;;;4.47;1.67;;;;;;;;;;5059929;28;20212;-68
2023/02/27 00:52:54;;;;;;;5.30;1.40;;;;;;;;;;5054847;28;20243;-68
2023/02/27 00:55:20;;;;;;;5.50;1.70;;;;;;;;;;5056028;28;20219;-68
2023/02/27 00:57:45;;;;;;;7.17;1.70;;;;;;;;;;5056988;28;20232;-69
2023/02/27 01:00:11;;;;;;;3.30;1.27;;;;;;;;;;5064803;28;20221;-68
2023/02/27 01:02:37;;;;;;;4.07;1.50;;;;;;;;;;5062818;28;20259;-69
2023/02/27 01:05:03;;;;;;;2.23;1.50;;;;;;;;;;5064647;28;20188;-69
2023/02/27 01:07:28;;;;;;;4.83;1.60;;;;;;;;;;5053246;28;20581;-69
2023/02/27 01:09:54;;;;;;;3.13;1.83;;;;;;;;;;5048613;28;20550;-69
2023/02/27 01:12:19;;;;;;;4.77;1.40;;;;;;;;;;5049308;28;20200;-69
2023/02/27 01:14:44;;;;;;;7.87;1.60;;;;;;;;;;5056368;28;20557;-69
2023/02/27 01:17:10;;;;;;;5.80;1.50;;;;;;;;;;5053442;28;20232;-68
2023/02/27 01:19:35;;;;;;;4.93;1.70;;;;;;;;;;5054627;28;20853;-68
2023/02/27 01:22:00;;;;;;;6.20;2.00;;;;;;;;;;5050740;28;20688;-68
2023/02/27 01:24:26;;;;;;;3.67;1.77;;;;;;;;;;5052059;28;20190;-69
2023/02/27 01:26:51;;;;;;;5.57;1.47;;;;;;;;;;5049303;28;20258;-69
2023/02/27 01:29:17;;;;;;;6.73;1.93;;;;;;;;;;5064105;28;20268;-68
2023/02/27 01:31:42;;;;;;;4.37;1.93;;;;;;;;;;5054669;28;20564;-68
2023/02/27 01:34:08;;;;;;;7.17;2.00;;;;;;;;;;5048754;28;20193;-69
2023/02/27 01:36:33;;;;;;;4.67;1.83;;;;;;;;;;5056204;28;20206;-68
2023/02/27 01:38:59;;;;;;;6.93;1.90;;;;;;;;;;5048897;28;20459;-68
2023/02/27 01:41:24;;;;;;;3.73;1.57;;;;;;;;;;5066160;28;20239;-69
2023/02/27 01:44:07;;;;;;;4.17;1.87;;;;;;;;;;5068978;28;20274;-68
2023/02/27 01:46:33;;;;;;;4.70;1.90;;;;;;;;;;5050562;28;20189;-68
2023/02/27 01:49:07;;;;;;;4.03;1.90;;;;;;;;;;5056453;28;20614;-67
2023/02/27 01:51:36;;;;;;;4.10;1.93;;;;;;;;;;5061446;28;20602;-68
2023/02/27 01:54:04;;;;;;;7.30;2.40;;;;;;;;;;5066882;28;20237;-69
2023/02/27 01:56:30;;;;;;;5.40;2.10;;;;;;;;;;5057080;28;20185;-69
2023/02/27 01:59:02;;;;;;;6.97;2.20;;;;;;;;;;5060553;28;20220;-67
2023/02/27 02:01:28;;;;;;;4.10;1.60;;;;;;;;;;5048518;28;20205;-67
2023/02/27 02:04:20;;;;;;;6.93;1.93;;;;;;;;;;5053294;28;20277;-69
2023/02/27 02:06:49;;;;;;;5.10;1.77;;;;;;;;;;5052047;28;20193;-69
2023/02/27 02:09:17;;;;;;;7.63;2.10;;;;;;;;;;5047493;28;20412;-69
2023/02/27 02:11:43;;;;;;;6.17;2.20;;;;;;;;;;5061701;28;20188;-69
2023/02/27 02:14:09;;;;;;;11.87;2.20;;;;;;;;;;5055091;28;20182;-69
2023/02/27 02:16:54;;;;;;;5.17;2.10;;;;;;;;;;5061229;28;20261;-70
2023/02/27 02:20:09;;;;;;;6.87;1.83;;;;;;;;;;5065553;28;20271;-69
2023/02/27 02:23:11;;;;;;;4.47;1.90;;;;;;;;;;5046820;28;20189;-67
2023/02/27 02:25:55;;;;;;;6.80;2.00;;;;;;;;;;5047858;28;20204;-67
2023/02/27 02:28:39;;;;;;;11.30;2.33;;;;;;;;;;5046645;28;20209;-67
2023/02/27 02:31:29;;;;;;;5.70;2.20;;;;;;;;;;5053414;28;20236;-67
2023/02/27 02:34:14;;;;;;;6.47;2.00;;;;;;;;;;5062427;28;20250;-69
2023/02/27 02:36:56;;;;;;;9.13;1.57;;;;;;;;;;5052458;28;20224;-69
2023/02/27 02:39:52;;;;;;;6.00;2.07;;;;;;;;;;5054711;28;20311;-69
2023/02/27 02:42:48;;;;;;;7.37;1.93;;;;;;;;;;5059114;28;20307;-69
2023/02/27 02:45:33;;;;;;;6.53;2.37;;;;;;;;;;5053258;28;20192;-68
2023/02/27 02:48:22;;;;;;;3.93;1.80;;;;;;;;;;5047180;28;20197;-68
2023/02/27 02:50:55;;;;;;;6.37;2.40;;;;;;;;;;5047841;28;20640;-68
2023/02/27 02:53:29;;;;;;;7.40;1.90;;;;;;;;;;5058361;28;20201;-68
2023/02/27 02:56:03;;;;;;;7.63;2.00;;;;;;;;;;5047644;28;20204;-68
2023/02/27 02:58:54;;;;;;;11.33;2.20;;;;;;;;;;5051352;28;20247;-68
2023/02/27 03:01:26;;;;;;;9.17;1.97;;;;;;;;;;5067916;28;20323;-68
2023/02/27 03:03:55;;;;;;;5.23;1.73;;;;;;;;;;5051112;28;20758;-68
2023/02/27 03:06:29;;;;;;;6.73;1.63;;;;;;;;;;5066473;28;20289;-68
2023/02/27 03:09:15;;;;;;;3.03;1.63;;;;;;;;;;5051683;28;20272;-68
2023/02/27 03:11:44;;;;;;;5.57;1.63;;;;;;;;;;5051029;28;20349;-68
2023/02/27 03:14:17;;;;;;;15.87;2.37;;;;;;;;;;5051060;28;20223;-67
2023/02/27 03:16:47;;;;;;;12.03;2.40;;;;;;;;;;5070324;28;20212;-68
2023/02/27 03:19:17;;;;;;;5.07;1.70;;;;;;;;;;5064932;28;20195;-67
2023/02/27 03:21:54;;;;;;;7.50;1.80;;;;;;;;;;5050382;28;20200;-67
2023/02/27 03:24:36;;;;;;;5.53;2.10;;;;;;;;;;5055549;28;20208;-68
2023/02/27 03:27:04;;;;;;;6.10;2.00;;;;;;;;;;5050829;28;20200;-67
2023/02/27 03:29:42;;;;;;;3.47;1.87;;;;;;;;;;5050253;28;20700;-68
2023/02/27 03:32:23;;;;;;;3.73;1.60;;;;;;;;;;5057212;28;20496;-67
2023/02/27 03:34:48;;;;;;;5.63;1.97;;;;;;;;;;5052562;28;20205;-68
2023/02/27 03:37:19;;;;;;;8.13;1.70;;;;;;;;;;5070387;28;20741;-68
2023/02/27 03:39:51;;;;;;;7.60;2.07;;;;;;;;;;5056160;28;20674;-68
2023/02/27 03:42:42;;;;;;;10.03;2.07;;;;;;;;;;5049622;28;20221;-69
2023/02/27 03:45:33;;;;;;;6.73;2.10;;;;;;;;;;5050537;28;20625;-68
2023/02/27 03:48:00;;;;;;;7.60;2.03;;;;;;;;;;5059667;28;20272;-67
2023/02/27 03:50:26;;;;;;;6.13;2.23;;;;;;;;;;5055596;28;20664;-67
2023/02/27 03:52:52;;;;;;;5.37;1.90;;;;;;;;;;5061731;28;20204;-68
2023/02/27 03:55:26;;;;;;;12.73;1.87;;;;;;;;;;5050234;28;20185;-67
2023/02/27 03:57:51;;;;;;;3.73;1.73;;;;;;;;;;5058365;28;20216;-67
2023/02/27 04:00:20;;;;;;;5.33;1.70;;;;;;;;;;5049002;28;20291;-68
2023/02/27 04:02:49;;;;;;;7.87;2.30;;;;;;;;;;5063306;28;20206;-67
2023/02/27 04:05:15;;;;;;;5.33;1.77;;;;;;;;;;5050755;28;20747;-68
2023/02/27 04:07:43;;;;;;;6.33;1.97;;;;;;;;;;5052483;28;20189;-67
2023/02/27 04:10:17;;;;;;;7.00;2.00;;;;;;;;;;5048951;28;20193;-67
2023/02/27 04:13:11;;;;;;;5.63;2.03;;;;;;;;;;5069538;28;20216;-67
2023/02/27 04:16:03;;;;;;;5.03;2.17;;;;;;;;;;5052702;28;20193;-68
2023/02/27 04:18:50;;;;;;;5.47;2.10;;;;;;;;;;5066579;28;20632;-68
2023/02/27 04:21:27;;;;;;;5.47;2.00;;;;;;;;;;5057677;28;20715;-67
2023/02/27 04:24:21;;;;;;;5.10;2.13;;;;;;;;;;5063128;28;20196;-68
2023/02/27 04:27:14;;;;;;;5.57;2.30;;;;;;;;;;5052900;28;20205;-67
2023/02/27 04:30:00;;;;;;;5.53;1.77;;;;;;;;;;5049822;28;20237;-67
2023/02/27 04:32:40;;;;;;;6.63;1.90;;;;;;;;;;5053682;28;20614;-67
2023/02/27 04:35:12;;;;;;;11.73;2.67;;;;;;;;;;5057191;28;20278;-67
2023/02/27 04:38:19;;;;;;;5.40;2.13;;;;;;;;;;5060448;28;20267;-67
2023/02/27 04:40:52;;;;;;;6.57;1.90;;;;;;;;;;5061880;28;20212;-67
2023/02/27 04:43:19;;;;;;;6.10;2.13;;;;;;;;;;5064394;28;20241;-67
2023/02/27 04:45:46;;;;;;;5.23;2.07;;;;;;;;;;5055004;28;20189;-67
2023/02/27 04:48:36;;;;;;;5.17;2.13;;;;;;;;;;5062148;28;20197;-67
2023/02/27 04:51:15;;;;;;;7.13;1.93;;;;;;;;;;5068531;28;20200;-67
2023/02/27 04:53:57;;;;;;;5.87;2.10;;;;;;;;;;5051093;28;20193;-68
2023/02/27 04:56:29;;;;;;;10.03;2.37;;;;;;;;;;5060912;28;20763;-68
2023/02/27 04:59:09;;;;;;;8.53;2.53;;;;;;;;;;5053320;28;20570;-67
2023/02/27 05:01:39;;;;;;;9.67;2.40;;;;;;;;;;5064499;28;20255;-67
2023/02/27 05:04:09;;;;;;;6.87;2.33;;;;;;;;;;5068737;28;20581;-68
2023/02/27 05:06:38;;;;;;;4.07;1.80;;;;;;;;;;5069687;28;20203;-67
2023/02/27 05:09:29;;;;;;;7.47;2.10;;;;;;;;;;5063242;28;20550;-69
2023/02/27 05:12:02;;;;;;;5.17;2.17;;;;;;;;;;5057096;28;20192;-67
2023/02/27 05:14:31;;;;;;;6.97;2.20;;;;;;;;;;5057831;28;20184;-67
2023/02/27 05:17:15;;;;;;;8.13;2.30;;;;;;;;;;5064671;28;20218;-67
2023/02/27 05:19:42;;;;;;;5.10;2.10;;;;;;;;;;5068314;28;20180;-68
2023/02/27 05:22:12;;;;;;;6.23;2.30;;;;;;;;;;5048453;28;20259;-67
2023/02/27 05:24:56;;;;;;;4.47;1.87;;;;;;;;;;5048771;28;20478;-67
2023/02/27 05:27:50;;;;;;;4.40;2.50;;;;;;;;;;5048418;28;20296;-68
2023/02/27 05:30:19;;;;;;;10.67;2.37;;;;;;;;;;5049836;28;20275;-67
2023/02/27 05:32:52;;;;;;;6.03;2.10;;;;;;;;;;5048339;28;20298;-67
2023/02/27 05:35:21;;;;;;;7.10;2.50;;;;;;;;;;5061895;28;20260;-67
2023/02/27 05:38:08;;;;;;;5.13;2.00;;;;;;;;;;5048826;28;20667;-67
2023/02/27 05:40:38;;;;;;;6.53;2.43;;;;;;;;;;5061445;28;20308;-69
2023/02/27 05:43:09;;;;;;;9.93;2.40;;;;;;;;;;5048002;28;20255;-68
2023/02/27 05:45:38;;;;;;;3.53;2.07;;;;;;;;;;5054914;28;20268;-68
2023/02/27 05:48:10;;;;;;;10.90;2.63;;;;;;;;;;5057568;28;20271;-67
2023/02/27 05:50:38;;;;;;;8.33;2.47;;;;;;;;;;5052645;28;20275;-67
2023/02/27 05:53:08;;;;;;;4.83;2.07;;;;;;;;;;5054665;28;20645;-67
2023/02/27 05:55:53;;;;;;;7.63;2.67;;;;;;;;;;5059647;28;20185;-67
2023/02/27 05:58:24;;;;;;;7.17;2.20;;;;;;;;;;5056227;28;20653;-68
2023/02/27 06:01:00;;;;;;;4.87;1.93;;;;;;;;;;5056507;28;20209;-67
2023/02/27 06:03:27;;;;;;;7.90;2.60;;;;;;;;;;5055495;28;20479;-67
2023/02/27 06:05:54;;;;;;;10.97;2.27;;;;;;;;;;5056636;28;20189;-67
2023/02/27 06:08:20;;;;;;;8.93;2.37;;;;;;;;;;5052020;28;20259;-67
2023/02/27 06:10:47;;;;;;;6.37;2.20;;;;;;;;;;5054359;28;20180;-67
2023/02/27 06:13:12;;;;;;;6.43;2.40;;;;;;;;;;5067540;28;20291;-69
2023/02/27 06:15:38;;;;;;;3.10;1.93;;;;;;;;;;5048729;28;20289;-68
2023/02/27 06:18:04;;;;;;;3.57;2.00;;;;;;;;;;5048839;28;20181;-67
2023/02/27 06:20:29;;;;;;;6.87;2.33;;;;;;;;;;5051738;28;20186;-67
2023/02/27 06:22:54;;;;;;;4.23;2.20;;;;;;;;;;5053188;28;20197;-68
2023/02/27 06:25:20;;;;;;;5.17;2.00;;;;;;;;;;5058700;28;20231;-69
2023/02/27 06:27:46;;;;;;;6.33;2.20;;;;;;;;;;5059258;28;20209;-68
2023/02/27 06:30:12;;;;;;;7.00;2.10;;;;;;;;;;5052873;28;20528;-68
2023/02/27 06:32:38;;;;;;;9.43;2.00;;;;;;;;;;5047582;28;20204;-68
2023/02/27 06:35:05;;;;;;;7.27;2.20;;;;;;;;;;5054109;28;20664;-68
2023/02/27 06:37:30;;;;;;;6.13;2.33;;;;;;;;;;5054050;28;20246;-68
2023/02/27 06:39:55;;;;;;;5.00;2.63;;;;;;;;;;5053427;28;20194;-68
2023/02/27 06:42:22;;;;;;;4.30;2.47;;;;;;;;;;5045607;28;20533;-68
2023/02/27 06:44:47;;;;;;;10.37;2.63;;;;;;;;;;5047238;28;20221;-68
2023/02/27 06:47:12;;;;;;;5.90;1.87;;;;;;;;;;5057991;28;20263;-68
2023/02/27 06:49:38;;;;;;;7.17;2.57;;;;;;;;;;5056657;28;20267;-68
2023/02/27 06:52:03;;;;;;;6.90;2.57;;;;;;;;;;5058063;28;20223;-68
2023/02/27 06:54:28;;;;;;;6.10;2.73;;;;;;;;;;5052923;28;20406;-69
2023/02/27 06:56:54;;;;;;;6.53;2.43;;;;;;;;;;5062685;28;20192;-68
2023/02/27 06:59:19;;;;;;;8.13;2.30;;;;;;;;;;5053003;28;20209;-68
2023/02/27 07:01:45;;;;;;;10.33;2.50;;;;;;;;;;5054996;28;20334;-68
2023/02/27 07:04:14;;;;;;;8.00;2.57;;;;;;;;;;5065037;28;20197;-68
2023/02/27 07:06:39;;;;;;;8.17;2.80;;;;;;;;;;5064324;28;20193;-68
2023/02/27 07:09:05;;;;;;;4.90;2.73;;;;;;;;;;5063111;28;20565;-68
2023/02/27 07:11:30;;;;;;;5.77;2.60;;;;;;;;;;5057540;28;20398;-68
2023/02/27 07:13:55;;;;;;;7.40;2.60;;;;;;;;;;5054978;28;20649;-69
2023/02/27 07:16:21;;;;;;;6.63;2.57;;;;;;;;;;5050380;28;20193;-68
2023/02/27 07:18:47;;;;;;;5.80;2.40;;;;;;;;;;5049753;28;20239;-68
2023/02/27 07:21:14;;;;;;;7.33;2.73;;;;;;;;;;5052439;28;20208;-68
2023/02/27 07:23:39;;;;;;;6.80;2.73;;;;;;;;;;5063994;28;20246;-68
2023/02/27 07:26:05;;;;;;;5.90;2.60;;;;;;;;;;5056896;28;20193;-69
2023/02/27 07:28:30;;;;;;;16.27;3.53;;;;;;;;;;5048588;28;20292;-68
2023/02/27 07:30:55;;;;;;;12.43;2.77;;;;;;;;;;5047829;28;20755;-68
2023/02/27 07:33:21;;;;;;;4.43;3.03;;;;;;;;;;5049710;28;20185;-70
2023/02/27 07:35:47;;;;;;;13.43;3.00;;;;;;;;;;5047573;28;20208;-68
2023/02/27 07:38:12;;;;;;;5.83;3.40;;;;;;;;;;5051609;28;20186;-68
2023/02/27 07:40:37;;;;;;;8.77;2.93;;;;;;;;;;5052728;28;20206;-69
2023/02/27 07:43:03;;;;;;;5.23;2.67;;;;;;;;;;5052095;28;20204;-68
2023/02/27 07:45:28;;;;;;;6.87;3.63;;;;;;;;;;5054940;28;20722;-68
2023/02/27 07:47:54;;;;;;;11.33;3.47;;;;;;;;;;5066335;28;20205;-68
2023/02/27 07:50:19;;;;;;;10.43;3.90;;;;;;;;;;5065660;28;20683;-68
2023/02/27 07:52:44;;;;;;;9.93;4.50;;;;;;;;;;5060739;28;20275;-68
2023/02/27 07:55:12;;;;;;;11.17;4.33;;;;;;;;;;5057605;28;20280;-67
2023/02/27 07:57:37;;;;;;;12.07;4.43;;;;;;;;;;5059530;28;20246;-68
2023/02/27 08:00:08;;;;;;;12.77;4.77;;;;;;;;;;5056977;28;20693;-67
2023/02/27 08:02:33;;;;;;;11.83;4.73;;;;;;;;;;5055681;28;20197;-67
2023/02/27 08:04:59;;;;;;;12.90;5.23;;;;;;;;;;5059145;28;20250;-68
2023/02/27 08:07:24;;;;;;;15.40;5.77;;;;;;;;;;5053888;28;20220;-67
2023/02/27 08:09:49;;;;;;;14.57;5.97;;;;;;;;;;5059631;28;20590;-67
2023/02/27 08:12:15;;;;;;;13.43;5.93;;;;;;;;;;5050745;28;22230;-67
2023/02/27 08:14:40;;;;;;;15.93;5.80;;;;;;;;;;5055667;28;20194;-67
2023/02/27 08:17:06;;;;;;;14.17;6.27;;;;;;;;;;5063924;28;20552;-69
2023/02/27 08:19:32;;;;;;;14.13;5.17;;;;;;;;;;5059203;28;20881;-66
2023/02/27 08:21:57;;;;;;;11.47;5.97;;;;;;;;;;5053046;28;20192;-70
2023/02/27 08:24:23;;;;;;;13.67;4.97;;;;;;;;;;5053398;28;20721;-69
2023/02/27 08:26:48;;;;;;;17.60;6.17;;;;;;;;;;5056852;28;20200;-68
2023/02/27 08:29:13;;;;;;;8.60;4.63;;;;;;;;;;5058731;28;20238;-68
2023/02/27 08:31:39;;;;;;;10.00;4.73;;;;;;;;;;5056127;28;20189;-69
2023/02/27 08:34:05;;;;;;;10.73;4.83;;;;;;;;;;5047987;28;20208;-69
2023/02/27 08:36:30;;;;;;;6.80;3.87;;;;;;;;;;5057208;28;20213;-68
2023/02/27 08:38:56;;;;;;;11.93;4.30;;;;;;;;;;5053982;28;20279;-69
2023/02/27 08:41:21;;;;;;;5.97;3.40;;;;;;;;;;5054042;28;20292;-69
2023/02/27 08:43:47;;;;;;;13.17;3.57;;;;;;;;;;5052753;28;20242;-68
2023/02/27 08:46:12;;;;;;;8.00;3.23;;;;;;;;;;5056335;28;20627;-69
2023/02/27 08:48:38;;;;;;;7.70;2.50;;;;;;;;;;5061716;28;20552;-69
2023/02/27 08:51:03;;;;;;;12.20;2.50;;;;;;;;;;5048721;28;20296;-68
2023/02/27 08:53:29;;;;;;;10.30;2.23;;;;;;;;;;5065920;28;20575;-69
2023/02/27 08:55:54;;;;;;;7.90;2.43;;;;;;;;;;5061815;28;20330;-68
2023/02/27 08:58:20;;;;;;;3.20;2.03;;;;;;;;;;5062728;28;20192;-68
2023/02/27 09:00:46;;;;;;;8.93;2.33;;;;;;;;;;5055841;28;20251;-69
2023/02/27 09:03:11;;;;;;;7.47;2.20;;;;;;;;;;5063135;28;20188;-68
2023/02/27 09:05:37;;;;;;;10.70;2.50;;;;;;;;;;5054232;28;20197;-69
2023/02/27 09:08:04;;;;;;;5.80;1.83;;;;;;;;;;5062965;28;20223;-68
2023/02/27 09:10:31;;;;;;;5.57;2.13;;;;;;;;;;5059125;28;20206;-68
2023/02/27 09:12:57;;;;;;;8.30;2.30;;;;;;;;;;5055768;28;20197;-68
2023/02/27 09:15:23;;;;;;;6.67;2.10;;;;;;;;;;5054718;28;20189;-68
2023/02/27 09:17:48;;;;;;;7.57;2.27;;;;;;;;;;5064110;28;20555;-68
2023/02/27 09:20:14;;;;;;;10.20;2.13;;;;;;;;;;5060497;28;20668;-68
2023/02/27 09:22:40;;;;;;;7.83;2.67;;;;;;;;;;5059569;28;20346;-68
2023/02/27 09:25:06;;;;;;;5.73;2.10;;;;;;;;;;5051422;28;20276;-67
2023/02/27 09:27:31;;;;;;;5.83;2.30;;;;;;;;;;5057279;28;20244;-68
2023/02/27 09:29:58;;;;;;;7.63;2.00;;;;;;;;;;5049717;28;20233;-66
2023/02/27 09:32:24;;;;;;;13.07;2.70;;;;;;;;;;5064792;28;20189;-67
2023/02/27 09:34:50;;;;;;;5.57;2.20;;;;;;;;;;5059339;28;20479;-67
2023/02/27 09:37:18;;;;;;;8.40;2.10;;;;;;;;;;5060802;28;20204;-67
2023/02/27 09:39:43;;;;;;;6.30;2.30;;;;;;;;;;5051384;28;20193;-67
2023/02/27 09:42:26;;;;;;;10.93;2.03;;;;;;;;;;5062141;28;20828;-67
2023/02/27 09:44:55;;;;;;;5.97;1.80;;;;;;;;;;5061606;28;20200;-67
2023/02/27 09:47:27;;;;;;;5.40;1.90;;;;;;;;;;5067596;28;20251;-68
2023/02/27 09:49:58;;;;;;;8.30;1.70;;;;;;;;;;5067029;28;20205;-67
2023/02/27 09:52:23;;;;;;;6.10;1.60;;;;;;;;;;5063100;28;20189;-67
2023/02/27 09:54:49;;;;;;;4.87;1.73;;;;;;;;;;5049313;28;20641;-67
2023/02/27 09:57:24;;;;;;;5.97;1.53;;;;;;;;;;5063580;28;20185;-68
2023/02/27 09:59:55;;;;;;;5.97;1.87;;;;;;;;;;5058829;28;20232;-67
2023/02/27 10:02:39;;;;;;;5.57;1.30;;;;;;;;;;5051542;28;20188;-67
2023/02/27 10:05:13;;;;;;;6.63;1.50;;;;;;;;;;5054336;28;20239;-66
2023/02/27 10:07:59;;;;;;;10.23;1.60;;;;;;;;;;5052836;28;20213;-67
2023/02/27 10:10:40;;;;;;;6.67;1.40;;;;;;;;;;5053847;28;20189;-67
2023/02/27 10:13:28;;;;;;;3.23;1.50;;;;;;;;;;5059756;28;20601;-67
2023/02/27 10:15:54;;;;;;;3.80;1.00;;;;;;;;;;5058176;28;20227;-67
2023/02/27 10:18:28;;;;;;;5.07;1.40;;;;;;;;;;5047468;28;20234;-67
2023/02/27 10:20:57;;;;;;;8.20;1.40;;;;;;;;;;5051139;28;20285;-67
2023/02/27 10:23:52;;;;;;;2.50;1.20;;;;;;;;;;5063208;28;20538;-66
2023/02/27 10:26:25;;;;;;;4.93;1.50;;;;;;;;;;5056463;28;20556;-66
2023/02/27 10:28:50;;;;;;;5.23;1.43;;;;;;;;;;5050158;28;20283;-66
2023/02/27 10:31:22;;;;;;;6.10;1.47;;;;;;;;;;5049333;28;20395;-66
2023/02/27 10:33:49;;;;;;;6.87;1.60;;;;;;;;;;5061044;28;20479;-66
2023/02/27 10:36:17;;;;;;;8.23;1.83;;;;;;;;;;5051732;28;20271;-65
2023/02/27 10:38:46;;;;;;;4.17;1.50;;;;;;;;;;5051543;28;20185;-66
2023/02/27 10:41:15;;;;;;;3.37;1.27;;;;;;;;;;5054120;28;20561;-66
2023/02/27 10:43:41;;;;;;;6.60;1.30;;;;;;;;;;5058706;28;20196;-66
2023/02/27 10:46:13;;;;;;;6.33;1.03;;;;;;;;;;5062017;28;20196;-66
2023/02/27 10:48:39;;;;;;;3.27;0.90;;;;;;;;;;5059258;28;20224;-66
2023/02/27 10:51:20;;;;;;;4.23;0.90;;;;;;;;;;5061574;28;20275;-66
2023/02/27 10:53:46;;;;;;;3.77;0.80;;;;;;;;;;5054269;28;20194;-66
2023/02/27 10:56:17;;;;;;;3.97;1.10;;;;;;;;;;5059188;28;20212;-67
2023/02/27 10:58:42;;;;;;;6.30;1.10;;;;;;;;;;5050964;28;20270;-67
2023/02/27 11:01:11;;;;;;;5.97;1.27;;;;;;;;;;5050385;28;20265;-67
2023/02/27 11:03:42;;;;;;;3.47;1.40;;;;;;;;;;5050656;28;20446;-67
2023/02/27 11:06:12;;;;;;;3.43;0.90;;;;;;;;;;5048095;28;20185;-67
2023/02/27 11:08:38;;;;;;;2.88;0.80;;;;;;;;;;5057290;28;20616;-67
2023/02/27 11:11:03;;;;;;;2.63;1.00;;;;;;;;;;5060381;28;20428;-67
2023/02/27 11:13:33;;;;;;;5.35;1.10;;;;;;;;;;5054699;28;20578;-67
2023/02/27 11:16:16;;;;;;;4.30;1.00;;;;;;;;;;5057952;28;20638;-67
2023/02/27 11:18:47;;;;;;;2.83;0.90;;;;;;;;;;5062269;28;20283;-67
2023/02/27 11:21:23;;;;;;;6.10;0.60;;;;;;;;;;5056976;28;20188;-67
2023/02/27 11:24:02;;;;;;;2.30;0.57;;;;;;;;;;5066086;28;20681;-67
2023/02/27 11:26:39;;;;;;;2.73;0.53;;;;;;;;;;5067152;28;20713;-67
2023/02/27 11:29:17;;;;;;;2.07;0.53;;;;;;;;;;5058291;28;20188;-67
2023/02/27 11:31:55;;;;;;;2.57;0.40;;;;;;;;;;5058772;28;20246;-67
2023/02/27 11:34:22;;;;;;;3.20;0.37;;;;;;;;;;5060972;28;20278;-67
2023/02/27 11:36:51;;;;;;;3.70;0.50;;;;;;;;;;5062375;28;20228;-67
2023/02/27 11:39:24;;;;;;;5.50;0.50;;;;;;;;;;5066349;28;20219;-66
2023/02/27 11:41:49;;;;;;;1.07;0.40;;;;;;;;;;5065426;28;20188;-67
2023/02/27 11:44:18;;;;;;;1.63;0.50;;;;;;;;;;5059671;28;20299;-66
2023/02/27 11:46:45;;;;;;;1.30;0.40;;;;;;;;;;5065852;28;20188;-66
2023/02/27 11:49:16;;;;;;;0.50;0.40;;;;;;;;;;5055773;28;20222;-66
2023/02/27 11:52:02;;;;;;;3.87;0.97;;;;;;;;;;5067667;28;20196;-68
2023/02/27 11:54:37;;;;;;;3.27;0.53;;;;;;;;;;5057315;28;20189;-67
2023/02/27 11:57:22;;;;;;;2.40;0.40;;;;;;;;;;5061147;28;20275;-67
2023/02/27 12:00:30;;;;;;;1.90;0.50;;;;;;;;;;5057419;28;20220;-67
2023/02/27 12:03:00;;;;;;;1.67;0.67;;;;;;;;;;5065996;28;20282;-67
2023/02/27 12:05:38;;;;;;;5.80;0.90;;;;;;;;;;5057801;28;20684;-67
2023/02/27 12:08:12;;;;;;;3.33;0.80;;;;;;;;;;5056823;28;20286;-67
2023/02/27 12:10:50;;;;;;;1.97;0.70;;;;;;;;;;5055217;28;20205;-67
2023/02/27 12:13:22;;;;;;;3.80;1.00;;;;;;;;;;5065410;28;20212;-68
2023/02/27 12:16:11;;;;;;;4.88;0.70;;;;;;;;;;5062453;28;20193;-67
2023/02/27 12:18:39;;;;;;;4.13;0.80;;;;;;;;;;5059042;28;20201;-67
2023/02/27 12:21:24;;;;;;;3.50;0.95;;;;;;;;;;5059888;28;20220;-67
2023/02/27 12:23:57;;;;;;;6.13;1.10;;;;;;;;;;5066376;28;20265;-67
2023/02/27 12:26:31;;;;;;;3.88;1.30;;;;;;;;;;5059031;28;20266;-67
2023/02/27 12:29:03;;;;;;;2.75;0.95;;;;;;;;;;5055017;28;20200;-67
2023/02/27 12:31:34;;;;;;;1.95;0.80;;;;;;;;;;5060735;28;20188;-67
2023/02/27 12:34:12;;;;;;;2.85;0.80;;;;;;;;;;5059825;28;20211;-67
2023/02/27 12:36:38;;;;;;;3.40;1.10;;;;;;;;;;5059206;28;20189;-67
2023/02/27 12:39:04;;;;;;;3.20;1.10;;;;;;;;;;5058497;28;20280;-67
2023/02/27 12:41:42;;;;;;;3.55;1.40;;;;;;;;;;5051461;28;20273;-67
2023/02/27 12:44:11;;;;;;;2.73;1.20;;;;;;;;;;5062185;28;20189;-67
2023/02/27 12:47:09;;;;;;;4.85;1.10;;;;;;;;;;5067683;28;20280;-67
2023/02/27 12:49:59;;;;;;;2.17;1.00;;;;;;;;;;5057464;28;20201;-66
2023/02/27 12:53:25;;;;;;;2.67;1.00;;;;;;;;;;5069700;28;20196;-67
2023/02/27 12:56:15;;;;;;;4.60;0.80;;;;;;;;;;5058550;28;20220;-67
2023/02/27 12:59:00;;;;;;;4.20;0.95;;;;;;;;;;5050627;28;20667;-68
2023/02/27 13:01:58;;;;;;;4.63;0.87;;;;;;;;;;5066894;28;20557;-67
2023/02/27 13:04:39;;;;;;;4.57;1.70;;;;;;;;;;5069849;28;20181;-67
2023/02/27 13:07:17;;;;;;;2.90;0.70;;;;;;;;;;5069025;28;20213;-67
2023/02/27 13:10:00;;;;;;;3.10;1.02;;;;;;;;;;5048299;28;20208;-68
2023/02/27 13:12:40;;;;;;;2.43;0.80;;;;;;;;;;5058152;28;20189;-68
2023/02/27 13:15:20;;;;;;;6.38;1.27;;;;;;;;;;5062634;28;20652;-67
2023/02/27 13:17:56;;;;;;;2.22;0.80;;;;;;;;;;5062229;28;20189;-67
2023/02/27 13:20:48;;;;;;;2.27;0.83;;;;;;;;;;5056545;28;20714;-67
2023/02/27 13:23:49;;;;;;;2.97;0.90;;;;;;;;;;5053802;28;20272;-67
2023/02/27 13:26:37;;;;;;;3.63;0.68;;;;;;;;;;5055275;28;20193;-67
2023/02/27 13:29:04;;;;;;;1.13;0.47;;;;;;;;;;5060205;28;20208;-68
2023/02/27 13:31:51;;;;;;;2.80;0.90;;;;;;;;;;5061872;28;20197;-69
2023/02/27 13:34:24;;;;;;;3.63;1.00;;;;;;;;;;5059507;28;20183;-68
2023/02/27 13:36:54;;;;;;;0.93;0.50;;;;;;;;;;5056992;28;20507;-66
2023/02/27 13:39:45;;;;;;;2.77;0.67;;;;;;;;;;5049847;28;20255;-67
2023/02/27 13:42:26;;;;;;;2.93;0.80;;;;;;;;;;5060612;28;20197;-66
2023/02/27 13:44:55;;;;;;;4.73;1.00;;;;;;;;;;5049658;28;20653;-67
2023/02/27 13:47:29;;;;;;;2.43;1.03;;;;;;;;;;5053059;28;20229;-68
2023/02/27 13:49:57;;;;;;;5.60;1.27;;;;;;;;;;5056976;28;20192;-68
2023/02/27 13:52:30;;;;;;;2.77;0.77;;;;;;;;;;5054166;28;20278;-67
2023/02/27 13:54:56;;;;;;;3.03;0.95;;;;;;;;;;5066229;28;20260;-67
2023/02/27 13:57:31;;;;;;;4.13;0.80;;;;;;;;;;5054260;28;20223;-67
2023/02/27 14:00:31;;;;;;;1.30;0.70;;;;;;;;;;5065021;28;20261;-67
2023/02/27 14:03:01;;;;;;;2.13;0.82;;;;;;;;;;5060592;28;20272;-66
2023/02/27 14:05:41;;;;;;;2.63;0.80;;;;;;;;;;5052520;28;20189;-67
2023/02/27 14:08:08;;;;;;;1.42;0.80;;;;;;;;;;5055311;28;20568;-67
2023/02/27 14:10:35;;;;;;;1.83;1.00;;;;;;;;;;5058407;28;20215;-69
2023/02/27 14:13:02;;;;;;;4.18;1.05;;;;;;;;;;5037247;28;20235;-67
2023/02/27 14:15:31;;;;;;;2.00;1.30;;;;;;;;;;5043374;28;20187;-67
2023/02/27 14:18:02;;;;;;;3.10;0.85;;;;;;;;;;5058291;28;20203;-67
2023/02/27 14:20:29;;;;;;;3.60;1.07;;;;;;;;;;5064937;28;20189;-67
2023/02/27 14:23:16;;;;;;;1.80;1.27;;;;;;;;;;5060494;28;20279;-66
2023/02/27 14:26:03;;;;;;;2.87;0.90;;;;;;;;;;5057104;28;20186;-67
2023/02/27 14:28:54;;;;;;;4.87;1.47;;;;;;;;;;5057171;28;20249;-67
2023/02/27 14:31:26;;;;;;;4.17;1.00;;;;;;;;;;5061536;28;20613;-67
2023/02/27 14:33:54;;;;;;;1.83;1.13;;;;;;;;;;5064260;28;20180;-68
2023/02/27 14:36:24;;;;;;;3.80;1.20;;;;;;;;;;5067031;28;20221;-67
2023/02/27 14:38:53;;;;;;;2.17;1.10;;;;;;;;;;5055024;28;20184;-67
2023/02/27 14:41:47;;;;;;;3.47;0.90;;;;;;;;;;5059107;28;20197;-67
2023/02/27 14:44:22;;;;;;;3.73;1.13;;;;;;;;;;5064188;28;20180;-68
2023/02/27 14:46:49;;;;;;;3.43;1.00;;;;;;;;;;5051837;28;20223;-67
2023/02/27 14:49:29;;;;;;;2.17;0.80;;;;;;;;;;5062240;28;20199;-67
2023/02/27 14:51:55;;;;;;;3.33;0.90;;;;;;;;;;5055838;28;20283;-67
2023/02/27 14:54:23;;;;;;;2.67;0.90;;;;;;;;;;5053893;28;20586;-68
2023/02/27 14:56:56;;;;;;;2.37;1.00;;;;;;;;;;5059114;28;20224;-67
2023/02/27 14:59:30;;;;;;;2.23;0.90;;;;;;;;;;5060339;28;20228;-67
2023/02/27 15:01:57;;;;;;;4.27;1.13;;;;;;;;;;5056520;28;20195;-67
2023/02/27 15:04:26;;;;;;;4.13;1.07;;;;;;;;;;5059147;28;20189;-67
2023/02/27 15:06:54;;;;;;;4.63;1.00;;;;;;;;;;5061364;28;20249;-67
2023/02/27 15:09:26;;;;;;;4.23;1.20;;;;;;;;;;5054295;28;20308;-67
2023/02/27 15:11:53;;;;;;;2.70;0.93;;;;;;;;;;5050181;28;20213;-67